• Join FlightAware (Why Join?)
  • Login
  • US Flag 
12:14AM EDT


 

Airport Tracker/Info


-or-


 

Live Flight TrackerFlight Track Log ✈ KAP2826 ✈ 2013年05月 6日 ✈ KBOS - KACK

Flight Track Log - Related Links

Times and Time Zones

All times are in EDT time to prevent confusion due to time zone crossing. See the KAP2826 flight status page for this flight to view local times or setup timezone preferences in your user account.

Time Position Orientation Groundspeed Altitude Reporting Facility
EDT Latitude Longitude Course Direction KTS MPH feet Rate Location/Type
09:54AM 42.3667 -70.9833 124° Southeast 107 123 400  Level KA90
09:54AM 42.3500 -70.9500 124° Southeast 106 122 900 660 Climbing KA90
09:55AM 42.3333 -70.9167 124° Southeast 116 133 1,600 600 Climbing KA90
09:56AM 42.3167 -70.8833 124° Southeast 124 143 2,100 480 Climbing KA90
09:57AM 42.2833 -70.8500 144° Southeast 131 151 2,600 480 Climbing KA90
09:58AM 42.2500 -70.8167 143° Southeast 129 148 3,100 480 Climbing KA90
10:00AM 42.2596 -70.7784 71° East  Level FlightAware Approximate
10:00AM 42.1833 -70.7667 71° East 133 153 4,200  Level KA90
10:01AM 42.1667 -70.7500 143° Southeast 130 150 4,700 480 Climbing KA90
10:04AM 42.1600 -70.6751 97° East  Level FlightAware Approximate
10:11AM 42.1377 -70.4312 97° East  Level FlightAware Approximate
10:12AM 42.1129 -70.4206 114° Southeast  Level Estimated
10:13AM 42.1047 -70.3874 108° East  Level FlightAware Approximate
10:14AM 42.0965 -70.3541 108° East  Level FlightAware Approximate
10:15AM 42.0883 -70.3208 108° East  Level FlightAware Approximate
10:16AM 42.0800 -70.2875 108° East  Level FlightAware Approximate
10:17AM 42.0718 -70.2543 108° East  Level FlightAware Approximate
10:18AM 42.0635 -70.2210 108° East  Level FlightAware Approximate
10:19AM 42.0552 -70.1878 109° East  Level FlightAware Approximate
10:20AM 42.0470 -70.1546 109° East  Level FlightAware Approximate
10:21AM 42.0387 -70.1214 109° East  Level FlightAware Approximate
10:22AM 42.0304 -70.0882 109° East  Level FlightAware Approximate
10:23AM 42.0044 -70.0872 180° South  Level Estimated
10:24AM 41.9785 -70.0837 174° South  Level FlightAware Approximate
10:25AM 41.9526 -70.0803 174° South  Level FlightAware Approximate
10:26AM 41.9267 -70.0768 174° South  Level FlightAware Approximate
10:27AM 41.9008 -70.0733 174° South  Level FlightAware Approximate
10:28AM 41.8749 -70.0699 174° South  Level FlightAware Approximate
10:29AM 41.8490 -70.0664 174° South  Level FlightAware Approximate
10:30AM 41.8231 -70.0630 174° South  Level FlightAware Approximate
10:31AM 41.7972 -70.0595 174° South  Level FlightAware Approximate
10:32AM 41.7713 -70.0561 174° South  Level FlightAware Approximate
10:33AM 41.7454 -70.0526 174° South  Level FlightAware Approximate
10:34AM 41.7195 -70.0492 174° South  Level FlightAware Approximate
10:35AM 41.6936 -70.0457 174° South  Level FlightAware Approximate
10:36AM 41.6677 -70.0423 174° South  Level FlightAware Approximate
10:37AM 41.6418 -70.0389 174° South  Level FlightAware Approximate
10:38AM 41.6159 -70.0354 174° South  Level FlightAware Approximate
10:39AM 41.5936 -70.0346 189° South  Level FlightAware Approximate
10:40AM 41.5678 -70.0398 189° South  Level FlightAware Approximate
10:41AM 41.5421 -70.0449 189° South  Level FlightAware Approximate
10:42AM 41.5164 -70.0500 180° South  Level FlightAware Approximate